San Clemente, CA

2:15 AM PST on February 11, 2016 (GMT -0800)
Shorecliffs | | Change Station
CLOSE
Current Station
Personal Weather Station
Location: San Clemente, CA
Elevation: 174 ft
Nearby Weather Stations
Active Advisory: Beach Hazard Statement

Elev 174 ft 33.44 °N, 117.64 °W | Updated 305 days ago

Clear
Clear
59 °F
Feels Like 59 °F
N
3
Wind Variable Wind from NE
Gusts mph

Today
High -- | Low -- °F
--% Chance of Precip.
Yesterday
High -- | Low -- °F
Precip. -- in
Pressure 30.32 in
Visibility 10.0 miles
Clouds Clear
Dew Point 30 °F
Humidity 34%
Rainfall in
Snow Depth Not available.
6:38 AM 5:31 PM
Waxing Crescent, 11% visible
METAR KNXF 110956Z AUTO 07011KT 10SM CLR 18/M01 A3007 RMK AO2 SLP268 T01781011 $
Pressure 30.32 in
Visibility 10.0 miles
Clouds Clear
Dew Point 30 °F
Humidity 34%
Rainfall in
Snow Depth Not available.
6:38 AM 5:31 PM
Waxing Crescent, 11% visible
METAR KNXF 110956Z AUTO 07011KT 10SM CLR 18/M01 A3007 RMK AO2 SLP268 T01781011 $

10-Day Weather Forecast

Almanac

Astronomy

Feb. 11, 2016 Rise Set
Actual Time
Civil Twilight
Nautical Twilight
Astronomical Twilight
Moon
Length of Visible Light
Length of Day
Tomorrow will be .
, % of the Moon is Illuminated

Today's Extremes

State Highs State Lows

Community

WunderPhotos

Upload Photos

1,892,030 photos uploaded!

WunderBlog® & News

Nearby

Air Quality

  Air Quality AQ Index Pollutant
Not available.

Snow Depth

Station Depth Elevation

Earthquake Activity

City Distance Mag. Time & Date
Minimum magnitude displayed is 2.5.

Coastal Water Temperatures

Place Temperature

Stations

Nearby Weather Stations

Station Location Temp. Windchill Dew Point Humidity Wind Precip. Elev Updated Type
                   

Watches & Warnings

Beach Hazard Statement
Issued: 1:42 AM PST Feb. 11, 2016 – National Weather Service

... Beach hazards statement in effect from Friday morning through
Sunday evening...

The National Weather Service in San Diego has issued a beach
hazards statement for elevated surf and strong rip currents... which
is in effect from Friday morning through Sunday evening.

* Swell... 8 to 9 ft at 17 to 18 seconds from the west-northwest
around 290 degrees.

* Waves and surf... 3 to 6 ft Friday... building to 4 to 7 ft
Saturday. Local sets to 8 ft possible north of Newport Beach and
south of del Mar. Surf lowering to 3 to 6 ft Sunday afternoon.

* Timing... Friday morning through Sunday evening.

* Impacts... high surf and strong rip currents will create
dangerous swimming conditions. Minor beach erosion is also
possible. Larger waves may over-top jetties or sea walls at
times.

Precautionary/preparedness actions...

A beach hazards statement is issued when threats such as strong
rip currents... elevated surf heights... minor tidal overflow... or
lightning are possible at local beaches. Obey posted warning
signs and flags and talk to a lifeguard before swimming. Use
caution when in or near the water and always swim near a
lifeguard.